sensor_id;sensor_type;location;lat;lon;timestamp;P1;durP1;ratioP1;P2;durP2;ratioP2
4391;SDS011;2210;51.938;8.488;2023-06-14T00:02:28;1.95;;;1.70;;
4391;SDS011;2210;51.938;8.488;2023-06-14T00:06:34;2.42;;;1.40;;
4391;SDS011;2210;51.938;8.488;2023-06-14T00:10:35;4.63;;;1.73;;
4391;SDS011;2210;51.938;8.488;2023-06-14T00:14:39;2.47;;;1.63;;
4391;SDS011;2210;51.938;8.488;2023-06-14T00:18:39;2.77;;;1.70;;
4391;SDS011;2210;51.938;8.488;2023-06-14T00:22:40;3.13;;;1.65;;
4391;SDS011;2210;51.938;8.488;2023-06-14T00:26:43;4.33;;;1.93;;
4391;SDS011;2210;51.938;8.488;2023-06-14T00:30:43;1.90;;;1.60;;
4391;SDS011;2210;51.938;8.488;2023-06-14T00:34:46;2.20;;;1.70;;
4391;SDS011;2210;51.938;8.488;2023-06-14T00:38:49;3.40;;;1.67;;
4391;SDS011;2210;51.938;8.488;2023-06-14T00:42:49;3.97;;;1.70;;
4391;SDS011;2210;51.938;8.488;2023-06-14T00:46:50;2.43;;;1.70;;
4391;SDS011;2210;51.938;8.488;2023-06-14T00:50:51;2.80;;;1.93;;
4391;SDS011;2210;51.938;8.488;2023-06-14T00:54:52;2.67;;;2.10;;
4391;SDS011;2210;51.938;8.488;2023-06-14T00:58:58;5.20;;;1.90;;
4391;SDS011;2210;51.938;8.488;2023-06-14T01:03:01;6.07;;;2.10;;
4391;SDS011;2210;51.938;8.488;2023-06-14T01:07:14;3.10;;;1.73;;
4391;SDS011;2210;51.938;8.488;2023-06-14T01:11:28;2.10;;;1.90;;
4391;SDS011;2210;51.938;8.488;2023-06-14T01:15:44;1.97;;;1.77;;
4391;SDS011;2210;51.938;8.488;2023-06-14T01:19:45;4.17;;;1.83;;
4391;SDS011;2210;51.938;8.488;2023-06-14T01:23:46;4.60;;;2.20;;
4391;SDS011;2210;51.938;8.488;2023-06-14T01:27:53;2.50;;;1.50;;
4391;SDS011;2210;51.938;8.488;2023-06-14T01:31:58;2.20;;;2.00;;
4391;SDS011;2210;51.938;8.488;2023-06-14T01:36:00;3.87;;;2.10;;
4391;SDS011;2210;51.938;8.488;2023-06-14T01:40:03;3.40;;;1.80;;
4391;SDS011;2210;51.938;8.488;2023-06-14T01:44:06;7.63;;;1.80;;
4391;SDS011;2210;51.938;8.488;2023-06-14T01:48:10;3.53;;;1.67;;
4391;SDS011;2210;51.938;8.488;2023-06-14T01:52:10;2.80;;;1.47;;
4391;SDS011;2210;51.938;8.488;2023-06-14T01:56:10;3.17;;;1.55;;
4391;SDS011;2210;51.938;8.488;2023-06-14T02:00:14;1.93;;;1.63;;
4391;SDS011;2210;51.938;8.488;2023-06-14T02:04:19;4.47;;;1.90;;
4391;SDS011;2210;51.938;8.488;2023-06-14T02:08:19;5.13;;;1.93;;
4391;SDS011;2210;51.938;8.488;2023-06-14T02:12:19;1.70;;;1.43;;
4391;SDS011;2210;51.938;8.488;2023-06-14T02:16:19;10.47;;;2.20;;
4391;SDS011;2210;51.938;8.488;2023-06-14T02:20:20;2.80;;;1.60;;
4391;SDS011;2210;51.938;8.488;2023-06-14T02:24:20;3.97;;;1.80;;
4391;SDS011;2210;51.938;8.488;2023-06-14T02:28:21;2.37;;;1.70;;
4391;SDS011;2210;51.938;8.488;2023-06-14T02:32:27;3.30;;;2.10;;
4391;SDS011;2210;51.938;8.488;2023-06-14T02:36:27;2.23;;;1.80;;
4391;SDS011;2210;51.938;8.488;2023-06-14T02:40:31;5.43;;;1.50;;
4391;SDS011;2210;51.938;8.488;2023-06-14T02:44:31;2.17;;;1.60;;
4391;SDS011;2210;51.938;8.488;2023-06-14T02:48:32;2.40;;;1.80;;
4391;SDS011;2210;51.938;8.488;2023-06-14T02:52:41;2.50;;;1.60;;
4391;SDS011;2210;51.938;8.488;2023-06-14T02:56:44;2.90;;;1.80;;
4391;SDS011;2210;51.938;8.488;2023-06-14T03:00:44;3.30;;;1.87;;
4391;SDS011;2210;51.938;8.488;2023-06-14T03:04:45;1.73;;;1.60;;
4391;SDS011;2210;51.938;8.488;2023-06-14T03:08:47;2.90;;;1.80;;
4391;SDS011;2210;51.938;8.488;2023-06-14T03:12:48;1.80;;;1.53;;
4391;SDS011;2210;51.938;8.488;2023-06-14T03:16:49;2.23;;;1.80;;
4391;SDS011;2210;51.938;8.488;2023-06-14T03:20:50;1.90;;;1.70;;
4391;SDS011;2210;51.938;8.488;2023-06-14T03:24:54;3.77;;;1.70;;
4391;SDS011;2210;51.938;8.488;2023-06-14T03:28:55;6.23;;;2.20;;
4391;SDS011;2210;51.938;8.488;2023-06-14T03:32:58;3.60;;;1.70;;
4391;SDS011;2210;51.938;8.488;2023-06-14T03:37:01;2.13;;;1.73;;
4391;SDS011;2210;51.938;8.488;2023-06-14T03:41:10;3.20;;;1.30;;
4391;SDS011;2210;51.938;8.488;2023-06-14T03:45:10;4.37;;;2.20;;
4391;SDS011;2210;51.938;8.488;2023-06-14T03:49:11;4.13;;;2.20;;
4391;SDS011;2210;51.938;8.488;2023-06-14T03:53:15;2.70;;;2.07;;
4391;SDS011;2210;51.938;8.488;2023-06-14T03:57:15;4.47;;;2.10;;
4391;SDS011;2210;51.938;8.488;2023-06-14T04:01:18;1.83;;;1.48;;
4391;SDS011;2210;51.938;8.488;2023-06-14T04:05:21;1.97;;;1.43;;
4391;SDS011;2210;51.938;8.488;2023-06-14T04:09:26;2.57;;;1.47;;
4391;SDS011;2210;51.938;8.488;2023-06-14T04:13:26;3.22;;;1.67;;
4391;SDS011;2210;51.938;8.488;2023-06-14T04:17:32;1.50;;;1.40;;
4391;SDS011;2210;51.938;8.488;2023-06-14T04:21:37;1.73;;;1.30;;
4391;SDS011;2210;51.938;8.488;2023-06-14T04:25:40;3.03;;;1.60;;
4391;SDS011;2210;51.938;8.488;2023-06-14T04:29:40;2.50;;;1.80;;
4391;SDS011;2210;51.938;8.488;2023-06-14T04:33:43;2.07;;;1.50;;
4391;SDS011;2210;51.938;8.488;2023-06-14T04:37:43;1.53;;;1.33;;
4391;SDS011;2210;51.938;8.488;2023-06-14T04:41:45;2.60;;;1.37;;
4391;SDS011;2210;51.938;8.488;2023-06-14T04:45:45;1.50;;;1.40;;
4391;SDS011;2210;51.938;8.488;2023-06-14T04:49:47;2.00;;;1.57;;
4391;SDS011;2210;51.938;8.488;2023-06-14T04:53:53;1.70;;;1.33;;
4391;SDS011;2210;51.938;8.488;2023-06-14T04:57:56;3.50;;;1.30;;
4391;SDS011;2210;51.938;8.488;2023-06-14T05:01:57;2.00;;;1.55;;
4391;SDS011;2210;51.938;8.488;2023-06-14T05:05:57;1.98;;;1.35;;
4391;SDS011;2210;51.938;8.488;2023-06-14T05:09:57;2.27;;;1.30;;
4391;SDS011;2210;51.938;8.488;2023-06-14T05:14:01;1.95;;;1.45;;
4391;SDS011;2210;51.938;8.488;2023-06-14T05:18:01;2.10;;;1.30;;
4391;SDS011;2210;51.938;8.488;2023-06-14T05:22:02;1.63;;;1.37;;
4391;SDS011;2210;51.938;8.488;2023-06-14T05:26:03;2.33;;;1.60;;
4391;SDS011;2210;51.938;8.488;2023-06-14T05:30:04;2.97;;;1.80;;
4391;SDS011;2210;51.938;8.488;2023-06-14T05:34:08;1.43;;;1.20;;
4391;SDS011;2210;51.938;8.488;2023-06-14T05:38:14;2.40;;;1.60;;
4391;SDS011;2210;51.938;8.488;2023-06-14T05:42:17;2.37;;;1.53;;
4391;SDS011;2210;51.938;8.488;2023-06-14T05:46:17;7.87;;;1.40;;
4391;SDS011;2210;51.938;8.488;2023-06-14T05:50:22;1.70;;;1.17;;
4391;SDS011;2210;51.938;8.488;2023-06-14T05:54:31;1.27;;;1.10;;
4391;SDS011;2210;51.938;8.488;2023-06-14T05:58:34;5.03;;;1.33;;
4391;SDS011;2210;51.938;8.488;2023-06-14T06:02:37;2.10;;;1.40;;
4391;SDS011;2210;51.938;8.488;2023-06-14T06:06:41;1.70;;;1.20;;
4391;SDS011;2210;51.938;8.488;2023-06-14T06:10:41;1.83;;;1.60;;
4391;SDS011;2210;51.938;8.488;2023-06-14T06:14:45;3.00;;;1.30;;
4391;SDS011;2210;51.938;8.488;2023-06-14T06:18:45;1.60;;;1.50;;
4391;SDS011;2210;51.938;8.488;2023-06-14T06:22:45;2.33;;;1.23;;
4391;SDS011;2210;51.938;8.488;2023-06-14T06:26:51;3.33;;;1.43;;
4391;SDS011;2210;51.938;8.488;2023-06-14T06:30:52;1.47;;;1.20;;
4391;SDS011;2210;51.938;8.488;2023-06-14T06:34:53;5.47;;;1.30;;
4391;SDS011;2210;51.938;8.488;2023-06-14T06:38:59;4.03;;;1.00;;
4391;SDS011;2210;51.938;8.488;2023-06-14T06:42:59;1.00;;;0.90;;
4391;SDS011;2210;51.938;8.488;2023-06-14T06:47:00;1.10;;;1.00;;
4391;SDS011;2210;51.938;8.488;2023-06-14T06:51:00;0.70;;;0.70;;
4391;SDS011;2210;51.938;8.488;2023-06-14T06:55:06;1.73;;;1.17;;
4391;SDS011;2210;51.938;8.488;2023-06-14T06:59:10;6.83;;;0.90;;
4391;SDS011;2210;51.938;8.488;2023-06-14T07:03:10;0.80;;;0.80;;
4391;SDS011;2210;51.938;8.488;2023-06-14T07:07:17;1.77;;;1.07;;
4391;SDS011;2210;51.938;8.488;2023-06-14T07:11:18;1.97;;;0.87;;
4391;SDS011;2210;51.938;8.488;2023-06-14T07:15:21;1.88;;;0.82;;
4391;SDS011;2210;51.938;8.488;2023-06-14T07:19:40;5.53;;;1.20;;
4391;SDS011;2210;51.938;8.488;2023-06-14T07:23:40;2.07;;;1.10;;
4391;SDS011;2210;51.938;8.488;2023-06-14T07:27:44;1.00;;;0.90;;
4391;SDS011;2210;51.938;8.488;2023-06-14T07:31:48;2.10;;;1.03;;
4391;SDS011;2210;51.938;8.488;2023-06-14T07:35:55;1.00;;;0.90;;
4391;SDS011;2210;51.938;8.488;2023-06-14T07:39:55;1.27;;;1.10;;
4391;SDS011;2210;51.938;8.488;2023-06-14T07:43:56;5.57;;;1.20;;
4391;SDS011;2210;51.938;8.488;2023-06-14T07:47:56;1.08;;;0.98;;
4391;SDS011;2210;51.938;8.488;2023-06-14T07:51:56;6.73;;;1.30;;
4391;SDS011;2210;51.938;8.488;2023-06-14T07:55:57;3.92;;;1.00;;
4391;SDS011;2210;51.938;8.488;2023-06-14T07:59:57;2.03;;;1.10;;
4391;SDS011;2210;51.938;8.488;2023-06-14T08:03:57;0.90;;;0.80;;
4391;SDS011;2210;51.938;8.488;2023-06-14T08:07:58;2.50;;;1.17;;
4391;SDS011;2210;51.938;8.488;2023-06-14T08:12:00;1.43;;;0.90;;
4391;SDS011;2210;51.938;8.488;2023-06-14T08:16:06;1.57;;;1.10;;
4391;SDS011;2210;51.938;8.488;2023-06-14T08:20:19;1.33;;;1.23;;
4391;SDS011;2210;51.938;8.488;2023-06-14T08:24:21;2.13;;;1.57;;
4391;SDS011;2210;51.938;8.488;2023-06-14T08:28:39;0.90;;;0.73;;
4391;SDS011;2210;51.938;8.488;2023-06-14T08:32:39;1.30;;;1.00;;
4391;SDS011;2210;51.938;8.488;2023-06-14T08:36:40;5.00;;;1.10;;
4391;SDS011;2210;51.938;8.488;2023-06-14T08:40:41;1.13;;;1.03;;
4391;SDS011;2210;51.938;8.488;2023-06-14T08:44:48;1.17;;;1.07;;
4391;SDS011;2210;51.938;8.488;2023-06-14T08:48:52;2.10;;;1.27;;
4391;SDS011;2210;51.938;8.488;2023-06-14T08:53:15;1.10;;;0.87;;
4391;SDS011;2210;51.938;8.488;2023-06-14T08:57:22;1.97;;;1.40;;
4391;SDS011;2210;51.938;8.488;2023-06-14T09:01:25;2.70;;;1.57;;
4391;SDS011;2210;51.938;8.488;2023-06-14T09:05:35;2.70;;;1.27;;
4391;SDS011;2210;51.938;8.488;2023-06-14T09:09:39;1.87;;;1.20;;
4391;SDS011;2210;51.938;8.488;2023-06-14T09:13:47;3.60;;;1.20;;
4391;SDS011;2210;51.938;8.488;2023-06-14T09:17:52;2.17;;;1.40;;
4391;SDS011;2210;51.938;8.488;2023-06-14T09:21:56;2.30;;;1.37;;
4391;SDS011;2210;51.938;8.488;2023-06-14T09:25:56;4.87;;;1.30;;
4391;SDS011;2210;51.938;8.488;2023-06-14T09:30:03;6.70;;;1.20;;
4391;SDS011;2210;51.938;8.488;2023-06-14T09:34:06;1.33;;;1.00;;
4391;SDS011;2210;51.938;8.488;2023-06-14T09:38:16;1.80;;;1.23;;
4391;SDS011;2210;51.938;8.488;2023-06-14T09:42:19;1.47;;;1.10;;
4391;SDS011;2210;51.938;8.488;2023-06-14T09:46:22;1.93;;;1.10;;
4391;SDS011;2210;51.938;8.488;2023-06-14T09:50:23;2.43;;;1.40;;
4391;SDS011;2210;51.938;8.488;2023-06-14T09:54:29;1.77;;;1.13;;
4391;SDS011;2210;51.938;8.488;2023-06-14T09:58:32;2.30;;;1.20;;
4391;SDS011;2210;51.938;8.488;2023-06-14T10:02:36;2.63;;;1.50;;
4391;SDS011;2210;51.938;8.488;2023-06-14T10:06:38;1.33;;;1.03;;
4391;SDS011;2210;51.938;8.488;2023-06-14T10:10:50;1.70;;;1.43;;
4391;SDS011;2210;51.938;8.488;2023-06-14T10:14:51;1.80;;;1.40;;
4391;SDS011;2210;51.938;8.488;2023-06-14T10:19:00;1.53;;;1.43;;
4391;SDS011;2210;51.938;8.488;2023-06-14T10:27:13;2.50;;;1.20;;
4391;SDS011;2210;51.938;8.488;2023-06-14T10:31:14;1.43;;;1.33;;
4391;SDS011;2210;51.938;8.488;2023-06-14T10:35:17;2.83;;;1.30;;
4391;SDS011;2210;51.938;8.488;2023-06-14T10:39:21;1.53;;;1.13;;
4391;SDS011;2210;51.938;8.488;2023-06-14T10:43:24;1.93;;;1.50;;
4391;SDS011;2210;51.938;8.488;2023-06-14T10:47:34;1.40;;;1.30;;
4391;SDS011;2210;51.938;8.488;2023-06-14T10:51:53;1.10;;;1.00;;
4391;SDS011;2210;51.938;8.488;2023-06-14T10:56:00;1.20;;;1.10;;
4391;SDS011;2210;51.938;8.488;2023-06-14T11:00:07;1.40;;;1.30;;
4391;SDS011;2210;51.938;8.488;2023-06-14T11:04:34;1.77;;;1.43;;
4391;SDS011;2210;51.938;8.488;2023-06-14T11:13:25;1.90;;;1.10;;
4391;SDS011;2210;51.938;8.488;2023-06-14T11:17:29;3.03;;;1.40;;
4391;SDS011;2210;51.938;8.488;2023-06-14T11:21:33;2.30;;;1.10;;
4391;SDS011;2210;51.938;8.488;2023-06-14T11:25:40;4.80;;;1.50;;
4391;SDS011;2210;51.938;8.488;2023-06-14T11:29:49;1.30;;;1.20;;
4391;SDS011;2210;51.938;8.488;2023-06-14T11:38:35;1.10;;;1.00;;
4391;SDS011;2210;51.938;8.488;2023-06-14T11:42:37;1.50;;;1.40;;
4391;SDS011;2210;51.938;8.488;2023-06-14T11:46:42;1.77;;;1.20;;
4391;SDS011;2210;51.938;8.488;2023-06-14T11:50:43;3.03;;;1.10;;
4391;SDS011;2210;51.938;8.488;2023-06-14T11:54:47;1.73;;;1.10;;
4391;SDS011;2210;51.938;8.488;2023-06-14T11:58:52;1.20;;;1.10;;
4391;SDS011;2210;51.938;8.488;2023-06-14T12:02:58;1.53;;;1.40;;
4391;SDS011;2210;51.938;8.488;2023-06-14T12:07:12;2.20;;;1.20;;
4391;SDS011;2210;51.938;8.488;2023-06-14T12:15:59;2.93;;;0.97;;
4391;SDS011;2210;51.938;8.488;2023-06-14T12:20:05;1.50;;;1.20;;
4391;SDS011;2210;51.938;8.488;2023-06-14T12:24:22;1.30;;;1.20;;
4391;SDS011;2210;51.938;8.488;2023-06-14T12:28:34;1.30;;;1.20;;
4391;SDS011;2210;51.938;8.488;2023-06-14T12:32:37;1.50;;;1.40;;
4391;SDS011;2210;51.938;8.488;2023-06-14T12:36:40;2.33;;;1.30;;
4391;SDS011;2210;51.938;8.488;2023-06-14T12:41:00;7.73;;;1.40;;
4391;SDS011;2210;51.938;8.488;2023-06-14T12:45:02;1.67;;;1.30;;
4391;SDS011;2210;51.938;8.488;2023-06-14T12:49:03;1.67;;;1.10;;
4391;SDS011;2210;51.938;8.488;2023-06-14T12:53:06;1.92;;;1.20;;
4391;SDS011;2210;51.938;8.488;2023-06-14T12:57:28;1.83;;;1.40;;
4391;SDS011;2210;51.938;8.488;2023-06-14T13:01:37;1.20;;;1.10;;
4391;SDS011;2210;51.938;8.488;2023-06-14T13:05:50;2.17;;;1.30;;
4391;SDS011;2210;51.938;8.488;2023-06-14T13:09:53;2.60;;;1.20;;
4391;SDS011;2210;51.938;8.488;2023-06-14T13:13:56;2.37;;;1.53;;
4391;SDS011;2210;51.938;8.488;2023-06-14T13:17:56;1.20;;;1.10;;
4391;SDS011;2210;51.938;8.488;2023-06-14T13:21:57;3.33;;;1.43;;
4391;SDS011;2210;51.938;8.488;2023-06-14T13:25:57;1.90;;;1.30;;
4391;SDS011;2210;51.938;8.488;2023-06-14T13:29:57;1.67;;;1.17;;
4391;SDS011;2210;51.938;8.488;2023-06-14T13:33:58;2.17;;;1.10;;
4391;SDS011;2210;51.938;8.488;2023-06-14T13:37:58;2.17;;;1.20;;
4391;SDS011;2210;51.938;8.488;2023-06-14T13:41:58;1.40;;;1.10;;
4391;SDS011;2210;51.938;8.488;2023-06-14T13:45:59;3.22;;;1.38;;
4391;SDS011;2210;51.938;8.488;2023-06-14T13:49:59;1.97;;;1.10;;
4391;SDS011;2210;51.938;8.488;2023-06-14T13:53:59;1.10;;;1.00;;
4391;SDS011;2210;51.938;8.488;2023-06-14T13:57:59;1.10;;;1.00;;
4391;SDS011;2210;51.938;8.488;2023-06-14T14:02:00;1.63;;;1.37;;
4391;SDS011;2210;51.938;8.488;2023-06-14T14:06:01;1.40;;;1.30;;
4391;SDS011;2210;51.938;8.488;2023-06-14T14:10:02;1.50;;;1.00;;
4391;SDS011;2210;51.938;8.488;2023-06-14T14:14:02;1.30;;;1.20;;
4391;SDS011;2210;51.938;8.488;2023-06-14T14:18:03;4.70;;;1.10;;
4391;SDS011;2210;51.938;8.488;2023-06-14T14:22:04;1.23;;;1.10;;
4391;SDS011;2210;51.938;8.488;2023-06-14T14:26:04;1.27;;;1.17;;
4391;SDS011;2210;51.938;8.488;2023-06-14T14:30:04;9.93;;;1.40;;
4391;SDS011;2210;51.938;8.488;2023-06-14T14:34:05;2.30;;;1.17;;
4391;SDS011;2210;51.938;8.488;2023-06-14T14:38:05;1.40;;;1.30;;
4391;SDS011;2210;51.938;8.488;2023-06-14T14:42:06;1.63;;;1.20;;
4391;SDS011;2210;51.938;8.488;2023-06-14T14:46:07;1.43;;;1.10;;
4391;SDS011;2210;51.938;8.488;2023-06-14T14:50:08;7.45;;;1.23;;
4391;SDS011;2210;51.938;8.488;2023-06-14T14:54:09;4.23;;;0.97;;
4391;SDS011;2210;51.938;8.488;2023-06-14T14:58:09;1.57;;;1.43;;
4391;SDS011;2210;51.938;8.488;2023-06-14T15:02:09;2.90;;;1.17;;
4391;SDS011;2210;51.938;8.488;2023-06-14T15:06:10;1.60;;;1.33;;
4391;SDS011;2210;51.938;8.488;2023-06-14T15:10:10;2.05;;;1.55;;
4391;SDS011;2210;51.938;8.488;2023-06-14T15:14:11;1.33;;;1.20;;
4391;SDS011;2210;51.938;8.488;2023-06-14T15:18:11;1.60;;;1.50;;
4391;SDS011;2210;51.938;8.488;2023-06-14T15:22:11;3.10;;;1.47;;
4391;SDS011;2210;51.938;8.488;2023-06-14T15:26:12;2.47;;;1.60;;
4391;SDS011;2210;51.938;8.488;2023-06-14T15:30:12;2.50;;;1.30;;
4391;SDS011;2210;51.938;8.488;2023-06-14T15:34:13;1.30;;;1.20;;
4391;SDS011;2210;51.938;8.488;2023-06-14T15:38:13;4.83;;;1.63;;
4391;SDS011;2210;51.938;8.488;2023-06-14T15:42:16;1.50;;;1.20;;
4391;SDS011;2210;51.938;8.488;2023-06-14T15:46:16;1.50;;;1.37;;
4391;SDS011;2210;51.938;8.488;2023-06-14T15:50:19;2.43;;;2.00;;
4391;SDS011;2210;51.938;8.488;2023-06-14T15:54:20;2.57;;;1.80;;
4391;SDS011;2210;51.938;8.488;2023-06-14T15:58:21;3.97;;;1.70;;
4391;SDS011;2210;51.938;8.488;2023-06-14T16:02:21;2.60;;;1.50;;
4391;SDS011;2210;51.938;8.488;2023-06-14T16:06:22;2.70;;;1.73;;
4391;SDS011;2210;51.938;8.488;2023-06-14T16:10:22;1.80;;;1.70;;
4391;SDS011;2210;51.938;8.488;2023-06-14T16:14:23;3.43;;;1.83;;
4391;SDS011;2210;51.938;8.488;2023-06-14T16:18:24;3.10;;;2.30;;
4391;SDS011;2210;51.938;8.488;2023-06-14T16:22:24;1.48;;;1.23;;
4391;SDS011;2210;51.938;8.488;2023-06-14T16:26:24;3.20;;;1.70;;
4391;SDS011;2210;51.938;8.488;2023-06-14T16:30:25;2.07;;;1.60;;
4391;SDS011;2210;51.938;8.488;2023-06-14T16:34:25;4.30;;;1.60;;
4391;SDS011;2210;51.938;8.488;2023-06-14T16:38:27;3.20;;;1.60;;
4391;SDS011;2210;51.938;8.488;2023-06-14T16:42:28;1.67;;;1.57;;
4391;SDS011;2210;51.938;8.488;2023-06-14T16:46:29;2.33;;;2.13;;
4391;SDS011;2210;51.938;8.488;2023-06-14T16:50:30;7.73;;;2.30;;
4391;SDS011;2210;51.938;8.488;2023-06-14T16:54:31;4.07;;;1.98;;
4391;SDS011;2210;51.938;8.488;2023-06-14T16:58:31;3.87;;;1.70;;
4391;SDS011;2210;51.938;8.488;2023-06-14T17:02:31;4.32;;;1.98;;
4391;SDS011;2210;51.938;8.488;2023-06-14T17:06:31;2.83;;;1.80;;
4391;SDS011;2210;51.938;8.488;2023-06-14T17:10:32;1.60;;;1.40;;
4391;SDS011;2210;51.938;8.488;2023-06-14T17:14:32;1.65;;;1.50;;
4391;SDS011;2210;51.938;8.488;2023-06-14T17:18:35;2.10;;;1.90;;
4391;SDS011;2210;51.938;8.488;2023-06-14T17:22:36;2.90;;;1.60;;
4391;SDS011;2210;51.938;8.488;2023-06-14T17:26:36;3.40;;;2.20;;
4391;SDS011;2210;51.938;8.488;2023-06-14T17:30:36;3.17;;;2.17;;
4391;SDS011;2210;51.938;8.488;2023-06-14T17:34:36;2.20;;;1.80;;
4391;SDS011;2210;51.938;8.488;2023-06-14T17:38:37;2.20;;;1.83;;
4391;SDS011;2210;51.938;8.488;2023-06-14T17:42:37;6.60;;;1.88;;
4391;SDS011;2210;51.938;8.488;2023-06-14T17:46:43;7.33;;;2.10;;
4391;SDS011;2210;51.938;8.488;2023-06-14T17:50:44;2.30;;;2.00;;
4391;SDS011;2210;51.938;8.488;2023-06-14T17:54:45;4.80;;;1.70;;
4391;SDS011;2210;51.938;8.488;2023-06-14T17:58:45;3.83;;;2.43;;
4391;SDS011;2210;51.938;8.488;2023-06-14T18:02:46;2.07;;;1.83;;
4391;SDS011;2210;51.938;8.488;2023-06-14T18:06:48;5.10;;;1.93;;
4391;SDS011;2210;51.938;8.488;2023-06-14T18:14:51;5.70;;;2.20;;
4391;SDS011;2210;51.938;8.488;2023-06-14T18:18:57;4.00;;;2.27;;
4391;SDS011;2210;51.938;8.488;2023-06-14T18:23:00;2.93;;;2.00;;
4391;SDS011;2210;51.938;8.488;2023-06-14T18:27:03;3.63;;;2.00;;
4391;SDS011;2210;51.938;8.488;2023-06-14T18:31:04;2.20;;;1.90;;
4391;SDS011;2210;51.938;8.488;2023-06-14T18:35:08;1.50;;;1.30;;
4391;SDS011;2210;51.938;8.488;2023-06-14T18:39:08;2.93;;;1.93;;
4391;SDS011;2210;51.938;8.488;2023-06-14T18:43:09;4.23;;;2.00;;
4391;SDS011;2210;51.938;8.488;2023-06-14T18:47:11;3.63;;;1.70;;
4391;SDS011;2210;51.938;8.488;2023-06-14T18:51:11;6.63;;;2.17;;
4391;SDS011;2210;51.938;8.488;2023-06-14T18:55:18;2.93;;;1.60;;
4391;SDS011;2210;51.938;8.488;2023-06-14T18:59:18;4.93;;;2.70;;
4391;SDS011;2210;51.938;8.488;2023-06-14T19:03:18;6.03;;;1.70;;
4391;SDS011;2210;51.938;8.488;2023-06-14T19:07:19;3.07;;;2.17;;
4391;SDS011;2210;51.938;8.488;2023-06-14T19:11:19;4.60;;;2.23;;
4391;SDS011;2210;51.938;8.488;2023-06-14T19:15:19;4.40;;;1.80;;
4391;SDS011;2210;51.938;8.488;2023-06-14T19:19:23;5.47;;;2.10;;
4391;SDS011;2210;51.938;8.488;2023-06-14T19:23:23;8.23;;;2.33;;
4391;SDS011;2210;51.938;8.488;2023-06-14T19:27:24;3.00;;;2.50;;
4391;SDS011;2210;51.938;8.488;2023-06-14T19:31:24;3.53;;;2.07;;
4391;SDS011;2210;51.938;8.488;2023-06-14T19:35:25;5.07;;;2.17;;
4391;SDS011;2210;51.938;8.488;2023-06-14T19:39:25;4.50;;;2.33;;
4391;SDS011;2210;51.938;8.488;2023-06-14T19:43:25;5.10;;;2.43;;
4391;SDS011;2210;51.938;8.488;2023-06-14T19:47:28;13.40;;;2.37;;
4391;SDS011;2210;51.938;8.488;2023-06-14T19:51:38;2.20;;;2.00;;
4391;SDS011;2210;51.938;8.488;2023-06-14T19:55:38;3.10;;;2.00;;
4391;SDS011;2210;51.938;8.488;2023-06-14T19:59:39;4.30;;;2.10;;
4391;SDS011;2210;51.938;8.488;2023-06-14T20:03:46;2.53;;;2.23;;
4391;SDS011;2210;51.938;8.488;2023-06-14T20:07:49;4.60;;;2.40;;
4391;SDS011;2210;51.938;8.488;2023-06-14T20:11:49;3.40;;;2.27;;
4391;SDS011;2210;51.938;8.488;2023-06-14T20:15:49;6.40;;;2.50;;
4391;SDS011;2210;51.938;8.488;2023-06-14T20:19:49;4.83;;;2.30;;
4391;SDS011;2210;51.938;8.488;2023-06-14T20:23:52;4.28;;;2.45;;
4391;SDS011;2210;51.938;8.488;2023-06-14T20:27:53;2.30;;;2.10;;
4391;SDS011;2210;51.938;8.488;2023-06-14T20:31:53;3.23;;;2.60;;
4391;SDS011;2210;51.938;8.488;2023-06-14T20:35:53;5.25;;;2.35;;
4391;SDS011;2210;51.938;8.488;2023-06-14T20:39:54;3.38;;;2.05;;
4391;SDS011;2210;51.938;8.488;2023-06-14T20:44:02;4.50;;;2.30;;
4391;SDS011;2210;51.938;8.488;2023-06-14T20:48:02;3.93;;;2.50;;
4391;SDS011;2210;51.938;8.488;2023-06-14T20:52:03;4.17;;;2.30;;
4391;SDS011;2210;51.938;8.488;2023-06-14T20:56:10;4.83;;;2.30;;
4391;SDS011;2210;51.938;8.488;2023-06-14T21:00:10;2.40;;;2.20;;
4391;SDS011;2210;51.938;8.488;2023-06-14T21:04:17;4.20;;;2.37;;
4391;SDS011;2210;51.938;8.488;2023-06-14T21:08:17;4.60;;;2.80;;
4391;SDS011;2210;51.938;8.488;2023-06-14T21:12:18;2.95;;;2.15;;
4391;SDS011;2210;51.938;8.488;2023-06-14T21:16:18;5.83;;;2.43;;
4391;SDS011;2210;51.938;8.488;2023-06-14T21:20:22;5.33;;;2.40;;
4391;SDS011;2210;51.938;8.488;2023-06-14T21:24:22;3.60;;;2.47;;
4391;SDS011;2210;51.938;8.488;2023-06-14T21:28:26;2.95;;;2.05;;
4391;SDS011;2210;51.938;8.488;2023-06-14T21:32:26;3.37;;;2.20;;
4391;SDS011;2210;51.938;8.488;2023-06-14T21:36:26;5.50;;;3.08;;
4391;SDS011;2210;51.938;8.488;2023-06-14T21:40:26;3.35;;;2.80;;
4391;SDS011;2210;51.938;8.488;2023-06-14T21:44:27;3.50;;;2.40;;
4391;SDS011;2210;51.938;8.488;2023-06-14T21:48:27;3.47;;;2.63;;
4391;SDS011;2210;51.938;8.488;2023-06-14T21:52:27;2.60;;;2.40;;
4391;SDS011;2210;51.938;8.488;2023-06-14T21:56:27;5.72;;;2.47;;
4391;SDS011;2210;51.938;8.488;2023-06-14T22:00:28;6.53;;;2.87;;
4391;SDS011;2210;51.938;8.488;2023-06-14T22:04:28;3.17;;;2.80;;
4391;SDS011;2210;51.938;8.488;2023-06-14T22:08:28;6.30;;;3.00;;
4391;SDS011;2210;51.938;8.488;2023-06-14T22:12:31;5.30;;;2.80;;
4391;SDS011;2210;51.938;8.488;2023-06-14T22:16:37;3.58;;;2.63;;
4391;SDS011;2210;51.938;8.488;2023-06-14T22:20:41;5.47;;;2.70;;
4391;SDS011;2210;51.938;8.488;2023-06-14T22:24:44;4.80;;;3.03;;
4391;SDS011;2210;51.938;8.488;2023-06-14T22:28:50;3.60;;;2.40;;
4391;SDS011;2210;51.938;8.488;2023-06-14T22:32:51;3.90;;;3.17;;
4391;SDS011;2210;51.938;8.488;2023-06-14T22:36:56;3.10;;;2.67;;
4391;SDS011;2210;51.938;8.488;2023-06-14T22:40:59;5.60;;;2.97;;
4391;SDS011;2210;51.938;8.488;2023-06-14T22:45:03;4.83;;;3.30;;
4391;SDS011;2210;51.938;8.488;2023-06-14T22:49:03;6.63;;;3.30;;
4391;SDS011;2210;51.938;8.488;2023-06-14T22:53:05;3.07;;;2.83;;
4391;SDS011;2210;51.938;8.488;2023-06-14T22:57:07;6.53;;;3.30;;
4391;SDS011;2210;51.938;8.488;2023-06-14T23:01:08;3.23;;;2.63;;
4391;SDS011;2210;51.938;8.488;2023-06-14T23:05:22;2.83;;;2.63;;
4391;SDS011;2210;51.938;8.488;2023-06-14T23:09:25;3.17;;;2.87;;
4391;SDS011;2210;51.938;8.488;2023-06-14T23:13:26;4.70;;;3.00;;
4391;SDS011;2210;51.938;8.488;2023-06-14T23:17:26;8.17;;;2.50;;
4391;SDS011;2210;51.938;8.488;2023-06-14T23:21:30;3.93;;;3.10;;
4391;SDS011;2210;51.938;8.488;2023-06-14T23:25:30;3.05;;;2.60;;
4391;SDS011;2210;51.938;8.488;2023-06-14T23:29:34;4.97;;;3.00;;
4391;SDS011;2210;51.938;8.488;2023-06-14T23:33:35;5.75;;;2.70;;
4391;SDS011;2210;51.938;8.488;2023-06-14T23:37:35;2.80;;;2.47;;
4391;SDS011;2210;51.938;8.488;2023-06-14T23:41:39;4.37;;;3.00;;
4391;SDS011;2210;51.938;8.488;2023-06-14T23:45:46;4.37;;;2.63;;
4391;SDS011;2210;51.938;8.488;2023-06-14T23:49:47;5.67;;;2.80;;
4391;SDS011;2210;51.938;8.488;2023-06-14T23:53:47;8.98;;;2.90;;
4391;SDS011;2210;51.938;8.488;2023-06-14T23:57:47;5.00;;;2.40;;
